Delta Ios — SVAK9 — position and weather

sailwx.info

Track history (hours):
 
Tides and Currents Weather Stations Pressure Air Temp Water Temp Dewpoint Dewpoint Depression Visibility Wind Speed Wind Dir Waves Ship Positions

Delta Ios

Last reported at 2017-Oct-12 20:19 UTC. Time now 2017-Oct-17 07:58 UTC.
Position N 26°36' W 015°42'.

Length 276 m; draft 9.5 m.

Type: Tanker. MMSI: 240821000.

Date/timePositionNaut miles runAvg speedWind from/ knotsBaromVisibWave heightAir tempDewpointWater temp
2017-Oct-12 20:19N 26°36' W 015°42'612.0
2017-Oct-12 19:48N 26°41' W 015°38'512.0
2017-Oct-12 19:22N 26°45' W 015°35'612.0
2017-Oct-12 18:53N 26°49' W 015°31'511.9
2017-Oct-12 18:30N 26°53' W 015°28'911.6
2017-Oct-12 17:43N 27°01' W 015°21'411.4
2017-Oct-12 17:20N 27°04' W 015°19'711.3
2017-Oct-12 16:42N 27°10' W 015°15'1211.2
2017-Oct-12 15:39N 27°22' W 015°12'211.2
2017-Oct-12 15:30N 27°23' W 015°12'611.2
2017-Oct-12 15:00N 27°29' W 015°11'611.6
2017-Oct-12 14:30N 27°35' W 015°10'611.9
2017-Oct-12 14:00N 27°41' W 015°09'611.8
2017-Oct-12 13:30N 27°46' W 015°08'611.8
2017-Oct-12 13:00N 27°52' W 015°08'611.4
2017-Oct-12 12:30N 27°57' W 015°11'611.6
2017-Oct-12 12:00N 28°01' W 015°16'611.5
2017-Oct-12 11:30N 28°05' W 015°20'4 7.4
2017-Oct-12 10:59N 28°08' W 015°24'0 0.2
2017-Oct-12 10:29N 28°08' W 015°24'0 0.1
2017-Oct-12 09:59N 28°08' W 015°24'0 0.0
2017-Oct-12 09:29N 28°08' W 015°24'0 0.0
2017-Oct-12 08:59N 28°08' W 015°24'0 0.0
2017-Oct-12 08:20N 28°08' W 015°24'0 0.0
2017-Oct-12 07:51N 28°08' W 015°24'0 0.1
2017-Oct-12 07:23N 28°08' W 015°24'0 0.0
2017-Oct-12 06:53N 28°08' W 015°24'0 0.0
2017-Oct-12 06:23N 28°08' W 015°24'0 0.0
2017-Oct-12 05:53N 28°08' W 015°24'0 0.0
2017-Oct-12 05:23N 28°08' W 015°24'0 0.0
2017-Oct-12 04:53N 28°08' W 015°24'0 0.1
2017-Oct-12 04:23N 28°08' W 015°24'0 0.0
2017-Oct-12 03:56N 28°08' W 015°24'0 0.0
2017-Oct-12 03:26N 28°08' W 015°24'0 0.0
2017-Oct-12 02:56N 28°08' W 015°24'0 0.0
2017-Oct-12 02:26N 28°08' W 015°24'0 0.0
2017-Oct-12 02:00N 28°08' W 015°24'0 0.1
2017-Oct-12 01:29N 28°08' W 015°24'0 0.0
2017-Oct-12 00:59N 28°08' W 015°24'0 0.0
2017-Oct-12 00:29N 28°08' W 015°24'0 0.0
2017-Oct-11 23:56N 28°08' W 015°24'0 0.0
2017-Oct-11 23:29N 28°08' W 015°24'0 0.0
2017-Oct-11 22:59N 28°08' W 015°24'0 0.0
2017-Oct-11 22:29N 28°08' W 015°24'0 0.0
2017-Oct-11 21:59N 28°08' W 015°24'0 0.0
2017-Oct-11 21:29N 28°08' W 015°24'0 0.0
2017-Oct-11 20:59N 28°08' W 015°24'0 0.1
2017-Oct-11 20:29N 28°08' W 015°24'0 0.0
2017-Oct-11 19:59N 28°08' W 015°24'0 0.0
2017-Oct-11 19:29N 28°08' W 015°24'0 0.0
2017-Oct-11 18:59N 28°08' W 015°24'0 0.0
2017-Oct-11 18:05N 28°08' W 015°24'0 0.0
2017-Oct-11 17:50N 28°08' W 015°24'0 0.0
2017-Oct-11 17:23N 28°08' W 015°24'0 0.1
2017-Oct-11 16:53N 28°08' W 015°24'0 0.0
2017-Oct-10 23:56N 28°08' W 015°24'0 0.0
2017-Oct-10 23:26N 28°08' W 015°24'0 0.1
2017-Oct-10 22:56N 28°08' W 015°24'0 0.0
2017-Oct-10 22:26N 28°08' W 015°24'0 0.0
2017-Oct-10 21:53N 28°08' W 015°24'0 0.1
2017-Oct-10 21:26N 28°08' W 015°24'0 0.1
2017-Oct-10 20:59N 28°08' W 015°24'0 0.2
2017-Oct-10 20:29N 28°08' W 015°24'0 0.1
2017-Oct-10 19:59N 28°08' W 015°24'0 0.0
2017-Oct-10 19:29N 28°08' W 015°24'0 0.0
2017-Oct-10 18:59N 28°08' W 015°24'0 0.0
2017-Oct-10 18:29N 28°08' W 015°24'0 0.0
2017-Oct-10 17:59N 28°08' W 015°24'0 0.0
2017-Oct-10 17:29N 28°08' W 015°24'0 0.0
2017-Oct-10 16:59N 28°08' W 015°24'0 0.4
2017-Oct-10 16:30N 28°08' W 015°24'3 5.3
2017-Oct-10 16:00N 28°06' W 015°21'3 6.0
2017-Oct-10 15:30N 28°05' W 015°18'3 6.8
2017-Oct-10 15:00N 28°05' W 015°14'6 6.2
2017-Oct-10 14:00N 28°07' W 015°07'4 7.3
2017-Oct-10 13:30N 28°09' W 015°04'3 6.9
2017-Oct-10 13:00N 28°11' W 015°01'4 7.1
2017-Oct-10 12:30N 28°14' W 014°59'4 7.7
2017-Oct-10 12:00N 28°17' W 014°57'510.2
2017-Oct-10 11:30N 28°22' W 014°55'510.2
2017-Oct-10 11:00N 28°26' W 014°52'5 9.7
2017-Oct-10 10:30N 28°31' W 014°50'5 9.2
2017-Oct-10 10:00N 28°35' W 014°48'5 9.1
2017-Oct-10 09:30N 28°39' W 014°45'5 9.2
2017-Oct-10 09:00N 28°43' W 014°43'5 9.1
2017-Oct-10 08:29N 28°48' W 014°41'4 9.0
2017-Oct-10 07:59N 28°52' W 014°38'4 9.1
2017-Oct-10 07:30N 28°56' W 014°36'18 8.7
2017-Oct-10 05:24N 29°11' W 014°26'0 0.9
2017-Oct-10 04:56N 29°12' W 014°26'0 0.2
2017-Oct-10 04:30N 29°12' W 014°25'0 0.3
2017-Oct-10 04:00N 29°12' W 014°25'0 0.3
2017-Oct-10 03:21N 29°12' W 014°25'0 0.4
2017-Oct-10 02:59N 29°12' W 014°25'0 0.5
2017-Oct-10 02:27N 29°12' W 014°25'0 0.5
2017-Oct-10 02:00N 29°12' W 014°24'0 0.6
2017-Oct-10 01:21N 29°12' W 014°24'0 0.6
2017-Oct-10 01:00N 29°12' W 014°24'0 0.7
2017-Oct-10 00:30N 29°12' W 014°23'0 0.9
2017-Oct-10 00:00N 29°13' W 014°23'0 0.9
2017-Oct-09 23:30N 29°13' W 014°23'1 1.0
2017-Oct-09 22:55N 29°13' W 014°22'0 1.0
2017-Oct-09 22:30N 29°13' W 014°22'1 1.1
2017-Oct-09 22:00N 29°14' W 014°21'1 1.1
2017-Oct-09 21:30N 29°14' W 014°21'1 1.1
2017-Oct-09 20:59N 29°15' W 014°21'1 1.1
2017-Oct-09 20:30N 29°15' W 014°20'0 1.0
2017-Oct-09 20:00N 29°16' W 014°20'0 0.9
2017-Oct-09 19:30N 29°16' W 014°20'1 0.7
2017-Oct-09 18:16N 29°17' W 014°20'0 0.7
2017-Oct-09 17:59N 29°17' W 014°20'30 3.2
2017-Oct-09 08:47N 28°47' W 014°17'1 1.0
2017-Oct-09 07:29N 28°49' W 014°16'2 0.8
2017-Oct-09 05:04N 28°51' W 014°17'0 0.7
2017-Oct-09 04:40N 28°51' W 014°17'2 0.8
2017-Oct-09 01:25N 28°53' W 014°16'32 1.0
2017-Oct-07 18:10N 29°25' W 014°15'9 0.6
2017-Oct-07 02:59N 29°34' W 014°12'3 1.4
2017-Oct-07 00:34N 29°37' W 014°10'0 1.4
2017-Oct-07 00:30N 29°37' W 014°10'1 1.4
2017-Oct-06 23:57N 29°37' W 014°09'1 1.3
2017-Oct-06 23:24N 29°38' W 014°09'0 1.2
2017-Oct-06 23:00N 29°38' W 014°09'1 1.1
2017-Oct-06 22:30N 29°39' W 014°08'1 1.2
2017-Oct-06 22:00N 29°39' W 014°08'1 1.4
2017-Oct-06 21:30N 29°40' W 014°07'1 2.8
2017-Oct-06 21:00N 29°39' W 014°06'5 8.1
2017-Oct-06 20:23N 29°34' W 014°04'5 8.0
2017-Oct-06 19:46N 29°30' W 014°02'10 7.9
2017-Oct-06 18:29N 29°20' W 013°57'3 4.2
2017-Oct-06 17:51N 29°18' W 013°56'2 1.6
2017-Oct-06 16:38N 29°20' W 013°57'0 1.6
2017-Oct-06 16:29N 29°20' W 013°57'1 1.6
2017-Oct-06 16:00N 29°21' W 013°57'1 1.1
2017-Oct-06 15:28N 29°21' W 013°58'2 0.2
2017-Oct-06 07:10N 29°23' W 013°57'1 1.2
2017-Oct-06 06:42N 29°23' W 013°56'0 1.3
2017-Oct-06 06:29N 29°24' W 013°56'1 1.3
2017-Oct-06 05:51N 29°24' W 013°55'9 1.3
2017-Oct-05 23:11N 29°32' W 013°51'3 1.4
2017-Oct-05 21:24N 29°35' W 013°51'3 1.4
2017-Oct-05 19:26N 29°38' W 013°51'1 1.3
2017-Oct-05 18:23N 29°39' W 013°51'1 1.3
2017-Oct-05 18:00N 29°39' W 013°51'1 1.4
2017-Oct-05 17:30N 29°40' W 013°51'1 1.3
2017-Oct-05 16:52N 29°41' W 013°51'1 0.8
2017-Oct-05 15:18N 29°42' W 013°50'1 4.4
2017-Oct-05 14:58N 29°40' W 013°49'2 2.4
2017-Oct-05 14:15N 29°39' W 013°47'1 1.3
2017-Oct-05 13:49N 29°40' W 013°47'0 1.4
2017-Oct-05 13:28N 29°40' W 013°48'1 1.6
2017-Oct-05 13:00N 29°41' W 013°48'1 1.5
2017-Oct-05 12:30N 29°42' W 013°49'1 1.3
2017-Oct-05 12:00N 29°41' W 013°49'3 5.3
2017-Oct-05 11:22N 29°39' W 013°46'2 6.2
2017-Oct-05 11:00N 29°38' W 013°44'3 5.8
2017-Oct-05 10:30N 29°37' W 013°41'1 1.4
2017-Oct-05 10:00N 29°38' W 013°40'0 0.9
2017-Oct-05 09:30N 29°38' W 013°40'0 0.9
2017-Oct-05 09:00N 29°39' W 013°40'0 1.0
2017-Oct-05 08:30N 29°39' W 013°40'0 1.0
2017-Oct-05 08:00N 29°40' W 013°39'0 0.9
2017-Oct-05 07:30N 29°40' W 013°39'1 1.0
2017-Oct-05 06:57N 29°40' W 013°39'1 1.1
2017-Oct-05 06:26N 29°41' W 013°39'1 1.2
2017-Oct-05 05:14N 29°42' W 013°38'0 1.2
2017-Oct-05 05:00N 29°43' W 013°38'1 1.2
2017-Oct-05 04:30N 29°43' W 013°38'1 1.1
2017-Oct-05 04:00N 29°44' W 013°37'1 1.1
2017-Oct-05 03:30N 29°44' W 013°37'1 1.1
2017-Oct-05 03:00N 29°45' W 013°37'1 1.2
2017-Oct-05 02:30N 29°45' W 013°37'1 1.1
2017-Oct-05 02:00N 29°46' W 013°36'1 1.2
2017-Oct-05 01:30N 29°46' W 013°36'1 1.2
2017-Oct-05 01:00N 29°47' W 013°36'1 1.3
2017-Oct-05 00:11N 29°48' W 013°35'1 1.3
2017-Oct-04 23:45N 29°48' W 013°35'0 1.4
2017-Oct-04 23:25N 29°48' W 013°34'1 1.4
2017-Oct-04 22:58N 29°49' W 013°34'1 1.4
2017-Oct-04 22:25N 29°50' W 013°34'1 1.5
2017-Oct-04 22:00N 29°50' W 013°34'1 1.5
2017-Oct-04 21:20N 29°51' W 013°33'1 1.6
2017-Oct-04 21:00N 29°52' W 013°33'2 1.7
2017-Oct-04 20:01N 29°53' W 013°32'0 1.4
2017-Oct-04 20:00N 29°53' W 013°32'2 1.9
2017-Oct-04 19:04N 29°55' W 013°31'0 2.0
2017-Oct-04 18:55N 29°55' W 013°31'1 2.1
2017-Oct-04 18:20N 29°56' W 013°30'1 2.2
2017-Oct-04 17:53N 29°57' W 013°29'1 3.1
2017-Oct-04 17:30N 29°58' W 013°28'5210.9
2017-Oct-04 12:43N 30°39' W 012°52'1911.1
2017-Oct-04 11:02N 30°54' W 012°38'311.5
2017-Oct-04 10:47N 30°56' W 012°36'411.9
2017-Oct-04 10:28N 30°59' W 012°33'611.6
2017-Oct-04 09:54N 31°04' W 012°29'511.1
2017-Oct-04 09:30N 31°08' W 012°25'610.9
2017-Oct-04 08:57N 31°13' W 012°21'511.1
2017-Oct-04 08:30N 31°16' W 012°18'511.0
2017-Oct-04 08:00N 31°21' W 012°14'711.0
2017-Oct-04 07:20N 31°26' W 012°09'411.0
2017-Oct-04 06:57N 31°30' W 012°05'511.1
2017-Oct-04 06:30N 31°34' W 012°02'611.3
2017-Oct-04 06:00N 31°38' W 011°58'611.0
2017-Oct-04 05:30N 31°42' W 011°54'710.9
2017-Oct-04 04:49N 31°49' W 011°49'311.1
2017-Oct-04 04:30N 31°51' W 011°46'611.2
2017-Oct-04 04:00N 31°56' W 011°42'611.2
2017-Oct-04 03:26N 32°01' W 011°38'511.1
2017-Oct-04 03:00N 32°05' W 011°34'511.0
2017-Oct-04 02:30N 32°09' W 011°30'611.1
2017-Oct-04 02:00N 32°13' W 011°26'711.2
2017-Oct-04 01:22N 32°19' W 011°21'511.3
2017-Oct-04 00:54N 32°23' W 011°17'711.3
2017-Oct-04 00:15N 32°29' W 011°11'411.2
2017-Oct-03 23:55N 32°32' W 011°09'3011.5
2017-Oct-03 21:16N 32°55' W 010°45'311.4
2017-Oct-03 21:00N 32°57' W 010°43'611.4
2017-Oct-03 20:30N 33°01' W 010°38'3011.2
2017-Oct-03 17:49N 33°23' W 010°14'311.1
2017-Oct-03 17:30N 33°26' W 010°11'611.1
2017-Oct-03 17:00N 33°30' W 010°06'2511.5
2017-Oct-03 14:49N 33°48' W 009°46'2711.4
2017-Oct-03 12:29N 34°08' W 009°24'911.4
2017-Oct-03 11:40N 34°15' W 009°16'211.3
2017-Oct-03 11:30N 34°16' W 009°15'611.2
2017-Oct-03 11:00N 34°20' W 009°10'611.5
2017-Oct-03 10:30N 34°24' W 009°05'611.4
2017-Oct-03 10:00N 34°28' W 009°01'  
Track history (hours):
 
Tides and Currents Weather Stations Pressure Air Temp Water Temp Dewpoint Dewpoint Depression Visibility Wind Speed Wind Dir Waves Ship Positions

Delta Ios

Last reported at 2017-Oct-12 20:19 UTC. Time now 2017-Oct-17 07:58 UTC.
Position N 26°36' W 015°42'.

Length 276 m; draft 9.5 m.

Type: Tanker. MMSI: 240821000.

Date/timePositionNaut miles runAvg speedWind from/ knotsBaromVisibWave heightAir tempDewpointWater temp
2017-Oct-12 20:19N 26°36' W 015°42'612.0
2017-Oct-12 19:48N 26°41' W 015°38'512.0
2017-Oct-12 19:22N 26°45' W 015°35'612.0
2017-Oct-12 18:53N 26°49' W 015°31'511.9
2017-Oct-12 18:30N 26°53' W 015°28'911.6
2017-Oct-12 17:43N 27°01' W 015°21'411.4
2017-Oct-12 17:20N 27°04' W 015°19'711.3
2017-Oct-12 16:42N 27°10' W 015°15'1211.2
2017-Oct-12 15:39N 27°22' W 015°12'211.2
2017-Oct-12 15:30N 27°23' W 015°12'611.2
2017-Oct-12 15:00N 27°29' W 015°11'611.6
2017-Oct-12 14:30N 27°35' W 015°10'611.9
2017-Oct-12 14:00N 27°41' W 015°09'611.8
2017-Oct-12 13:30N 27°46' W 015°08'611.8
2017-Oct-12 13:00N 27°52' W 015°08'611.4
2017-Oct-12 12:30N 27°57' W 015°11'611.6
2017-Oct-12 12:00N 28°01' W 015°16'611.5
2017-Oct-12 11:30N 28°05' W 015°20'4 7.4
2017-Oct-12 10:59N 28°08' W 015°24'0 0.2
2017-Oct-12 10:29N 28°08' W 015°24'0 0.1
2017-Oct-12 09:59N 28°08' W 015°24'0 0.0
2017-Oct-12 09:29N 28°08' W 015°24'0 0.0
2017-Oct-12 08:59N 28°08' W 015°24'0 0.0
2017-Oct-12 08:20N 28°08' W 015°24'0 0.0
2017-Oct-12 07:51N 28°08' W 015°24'0 0.1
2017-Oct-12 07:23N 28°08' W 015°24'0 0.0
2017-Oct-12 06:53N 28°08' W 015°24'0 0.0
2017-Oct-12 06:23N 28°08' W 015°24'0 0.0
2017-Oct-12 05:53N 28°08' W 015°24'0 0.0
2017-Oct-12 05:23N 28°08' W 015°24'0 0.0
2017-Oct-12 04:53N 28°08' W 015°24'0 0.1
2017-Oct-12 04:23N 28°08' W 015°24'0 0.0
2017-Oct-12 03:56N 28°08' W 015°24'0 0.0
2017-Oct-12 03:26N 28°08' W 015°24'0 0.0
2017-Oct-12 02:56N 28°08' W 015°24'0 0.0
2017-Oct-12 02:26N 28°08' W 015°24'0 0.0
2017-Oct-12 02:00N 28°08' W 015°24'0 0.1
2017-Oct-12 01:29N 28°08' W 015°24'0 0.0
2017-Oct-12 00:59N 28°08' W 015°24'0 0.0
2017-Oct-12 00:29N 28°08' W 015°24'0 0.0
2017-Oct-11 23:56N 28°08' W 015°24'0 0.0
2017-Oct-11 23:29N 28°08' W 015°24'0 0.0
2017-Oct-11 22:59N 28°08' W 015°24'0 0.0
2017-Oct-11 22:29N 28°08' W 015°24'0 0.0
2017-Oct-11 21:59N 28°08' W 015°24'0 0.0
2017-Oct-11 21:29N 28°08' W 015°24'0 0.0
2017-Oct-11 20:59N 28°08' W 015°24'0 0.1
2017-Oct-11 20:29N 28°08' W 015°24'0 0.0
2017-Oct-11 19:59N 28°08' W 015°24'0 0.0
2017-Oct-11 19:29N 28°08' W 015°24'0 0.0
2017-Oct-11 18:59N 28°08' W 015°24'0 0.0
2017-Oct-11 18:05N 28°08' W 015°24'0 0.0
2017-Oct-11 17:50N 28°08' W 015°24'0 0.0
2017-Oct-11 17:23N 28°08' W 015°24'0 0.1
2017-Oct-11 16:53N 28°08' W 015°24'0 0.0
2017-Oct-10 23:56N 28°08' W 015°24'0 0.0
2017-Oct-10 23:26N 28°08' W 015°24'0 0.1
2017-Oct-10 22:56N 28°08' W 015°24'0 0.0
2017-Oct-10 22:26N 28°08' W 015°24'0 0.0
2017-Oct-10 21:53N 28°08' W 015°24'0 0.1
2017-Oct-10 21:26N 28°08' W 015°24'0 0.1
2017-Oct-10 20:59N 28°08' W 015°24'0 0.2
2017-Oct-10 20:29N 28°08' W 015°24'0 0.1
2017-Oct-10 19:59N 28°08' W 015°24'0 0.0
2017-Oct-10 19:29N 28°08' W 015°24'0 0.0
2017-Oct-10 18:59N 28°08' W 015°24'0 0.0
2017-Oct-10 18:29N 28°08' W 015°24'0 0.0
2017-Oct-10 17:59N 28°08' W 015°24'0 0.0
2017-Oct-10 17:29N 28°08' W 015°24'0 0.0
2017-Oct-10 16:59N 28°08' W 015°24'0 0.4
2017-Oct-10 16:30N 28°08' W 015°24'3 5.3
2017-Oct-10 16:00N 28°06' W 015°21'3 6.0
2017-Oct-10 15:30N 28°05' W 015°18'3 6.8
2017-Oct-10 15:00N 28°05' W 015°14'6 6.2
2017-Oct-10 14:00N 28°07' W 015°07'4 7.3
2017-Oct-10 13:30N 28°09' W 015°04'3 6.9
2017-Oct-10 13:00N 28°11' W 015°01'4 7.1
2017-Oct-10 12:30N 28°14' W 014°59'4 7.7
2017-Oct-10 12:00N 28°17' W 014°57'510.2
2017-Oct-10 11:30N 28°22' W 014°55'510.2
2017-Oct-10 11:00N 28°26' W 014°52'5 9.7
2017-Oct-10 10:30N 28°31' W 014°50'5 9.2
2017-Oct-10 10:00N 28°35' W 014°48'5 9.1
2017-Oct-10 09:30N 28°39' W 014°45'5 9.2
2017-Oct-10 09:00N 28°43' W 014°43'5 9.1
2017-Oct-10 08:29N 28°48' W 014°41'4 9.0
2017-Oct-10 07:59N 28°52' W 014°38'4 9.1
2017-Oct-10 07:30N 28°56' W 014°36'18 8.7
2017-Oct-10 05:24N 29°11' W 014°26'0 0.9
2017-Oct-10 04:56N 29°12' W 014°26'0 0.2
2017-Oct-10 04:30N 29°12' W 014°25'0 0.3
2017-Oct-10 04:00N 29°12' W 014°25'0 0.3
2017-Oct-10 03:21N 29°12' W 014°25'0 0.4
2017-Oct-10 02:59N 29°12' W 014°25'0 0.5
2017-Oct-10 02:27N 29°12' W 014°25'0 0.5
2017-Oct-10 02:00N 29°12' W 014°24'0 0.6
2017-Oct-10 01:21N 29°12' W 014°24'0 0.6
2017-Oct-10 01:00N 29°12' W 014°24'0 0.7
2017-Oct-10 00:30N 29°12' W 014°23'0 0.9
2017-Oct-10 00:00N 29°13' W 014°23'0 0.9
2017-Oct-09 23:30N 29°13' W 014°23'1 1.0
2017-Oct-09 22:55N 29°13' W 014°22'0 1.0
2017-Oct-09 22:30N 29°13' W 014°22'1 1.1
2017-Oct-09 22:00N 29°14' W 014°21'1 1.1
2017-Oct-09 21:30N 29°14' W 014°21'1 1.1
2017-Oct-09 20:59N 29°15' W 014°21'1 1.1
2017-Oct-09 20:30N 29°15' W 014°20'0 1.0
2017-Oct-09 20:00N 29°16' W 014°20'0 0.9
2017-Oct-09 19:30N 29°16' W 014°20'1 0.7
2017-Oct-09 18:16N 29°17' W 014°20'0 0.7
2017-Oct-09 17:59N 29°17' W 014°20'30 3.2
2017-Oct-09 08:47N 28°47' W 014°17'1 1.0
2017-Oct-09 07:29N 28°49' W 014°16'2 0.8
2017-Oct-09 05:04N 28°51' W 014°17'0 0.7
2017-Oct-09 04:40N 28°51' W 014°17'2 0.8
2017-Oct-09 01:25N 28°53' W 014°16'32 1.0
2017-Oct-07 18:10N 29°25' W 014°15'9 0.6
2017-Oct-07 02:59N 29°34' W 014°12'3 1.4
2017-Oct-07 00:34N 29°37' W 014°10'0 1.4
2017-Oct-07 00:30N 29°37' W 014°10'1 1.4
2017-Oct-06 23:57N 29°37' W 014°09'1 1.3
2017-Oct-06 23:24N 29°38' W 014°09'0 1.2
2017-Oct-06 23:00N 29°38' W 014°09'1 1.1
2017-Oct-06 22:30N 29°39' W 014°08'1 1.2
2017-Oct-06 22:00N 29°39' W 014°08'1 1.4
2017-Oct-06 21:30N 29°40' W 014°07'1 2.8
2017-Oct-06 21:00N 29°39' W 014°06'5 8.1
2017-Oct-06 20:23N 29°34' W 014°04'5 8.0
2017-Oct-06 19:46N 29°30' W 014°02'10 7.9
2017-Oct-06 18:29N 29°20' W 013°57'3 4.2
2017-Oct-06 17:51N 29°18' W 013°56'2 1.6
2017-Oct-06 16:38N 29°20' W 013°57'0 1.6
2017-Oct-06 16:29N 29°20' W 013°57'1 1.6
2017-Oct-06 16:00N 29°21' W 013°57'1 1.1
2017-Oct-06 15:28N 29°21' W 013°58'2 0.2
2017-Oct-06 07:10N 29°23' W 013°57'1 1.2
2017-Oct-06 06:42N 29°23' W 013°56'0 1.3
2017-Oct-06 06:29N 29°24' W 013°56'1 1.3
2017-Oct-06 05:51N 29°24' W 013°55'9 1.3
2017-Oct-05 23:11N 29°32' W 013°51'3 1.4
2017-Oct-05 21:24N 29°35' W 013°51'3 1.4
2017-Oct-05 19:26N 29°38' W 013°51'1 1.3
2017-Oct-05 18:23N 29°39' W 013°51'1 1.3
2017-Oct-05 18:00N 29°39' W 013°51'1 1.4
2017-Oct-05 17:30N 29°40' W 013°51'1 1.3
2017-Oct-05 16:52N 29°41' W 013°51'1 0.8
2017-Oct-05 15:18N 29°42' W 013°50'1 4.4
2017-Oct-05 14:58N 29°40' W 013°49'2 2.4
2017-Oct-05 14:15N 29°39' W 013°47'1 1.3
2017-Oct-05 13:49N 29°40' W 013°47'0 1.4
2017-Oct-05 13:28N 29°40' W 013°48'1 1.6
2017-Oct-05 13:00N 29°41' W 013°48'1 1.5
2017-Oct-05 12:30N 29°42' W 013°49'1 1.3
2017-Oct-05 12:00N 29°41' W 013°49'3 5.3
2017-Oct-05 11:22N 29°39' W 013°46'2 6.2
2017-Oct-05 11:00N 29°38' W 013°44'3 5.8
2017-Oct-05 10:30N 29°37' W 013°41'1 1.4
2017-Oct-05 10:00N 29°38' W 013°40'0 0.9
2017-Oct-05 09:30N 29°38' W 013°40'0 0.9
2017-Oct-05 09:00N 29°39' W 013°40'0 1.0
2017-Oct-05 08:30N 29°39' W 013°40'0 1.0
2017-Oct-05 08:00N 29°40' W 013°39'0 0.9
2017-Oct-05 07:30N 29°40' W 013°39'1 1.0
2017-Oct-05 06:57N 29°40' W 013°39'1 1.1
2017-Oct-05 06:26N 29°41' W 013°39'1 1.2
2017-Oct-05 05:14N 29°42' W 013°38'0 1.2
2017-Oct-05 05:00N 29°43' W 013°38'1 1.2
2017-Oct-05 04:30N 29°43' W 013°38'1 1.1
2017-Oct-05 04:00N 29°44' W 013°37'1 1.1
2017-Oct-05 03:30N 29°44' W 013°37'1 1.1
2017-Oct-05 03:00N 29°45' W 013°37'1 1.2
2017-Oct-05 02:30N 29°45' W 013°37'1 1.1
2017-Oct-05 02:00N 29°46' W 013°36'1 1.2
2017-Oct-05 01:30N 29°46' W 013°36'1 1.2
2017-Oct-05 01:00N 29°47' W 013°36'1 1.3
2017-Oct-05 00:11N 29°48' W 013°35'1 1.3
2017-Oct-04 23:45N 29°48' W 013°35'0 1.4
2017-Oct-04 23:25N 29°48' W 013°34'1 1.4
2017-Oct-04 22:58N 29°49' W 013°34'1 1.4
2017-Oct-04 22:25N 29°50' W 013°34'1 1.5
2017-Oct-04 22:00N 29°50' W 013°34'1 1.5
2017-Oct-04 21:20N 29°51' W 013°33'1 1.6
2017-Oct-04 21:00N 29°52' W 013°33'2 1.7
2017-Oct-04 20:01N 29°53' W 013°32'0 1.4
2017-Oct-04 20:00N 29°53' W 013°32'2 1.9
2017-Oct-04 19:04N 29°55' W 013°31'0 2.0
2017-Oct-04 18:55N 29°55' W 013°31'1 2.1
2017-Oct-04 18:20N 29°56' W 013°30'1 2.2
2017-Oct-04 17:53N 29°57' W 013°29'1 3.1
2017-Oct-04 17:30N 29°58' W 013°28'5210.9
2017-Oct-04 12:43N 30°39' W 012°52'1911.1
2017-Oct-04 11:02N 30°54' W 012°38'311.5
2017-Oct-04 10:47N 30°56' W 012°36'411.9
2017-Oct-04 10:28N 30°59' W 012°33'611.6
2017-Oct-04 09:54N 31°04' W 012°29'511.1
2017-Oct-04 09:30N 31°08' W 012°25'610.9
2017-Oct-04 08:57N 31°13' W 012°21'511.1
2017-Oct-04 08:30N 31°16' W 012°18'511.0
2017-Oct-04 08:00N 31°21' W 012°14'711.0
2017-Oct-04 07:20N 31°26' W 012°09'411.0
2017-Oct-04 06:57N 31°30' W 012°05'511.1
2017-Oct-04 06:30N 31°34' W 012°02'611.3
2017-Oct-04 06:00N 31°38' W 011°58'611.0
2017-Oct-04 05:30N 31°42' W 011°54'710.9
2017-Oct-04 04:49N 31°49' W 011°49'311.1
2017-Oct-04 04:30N 31°51' W 011°46'611.2
2017-Oct-04 04:00N 31°56' W 011°42'611.2
2017-Oct-04 03:26N 32°01' W 011°38'511.1
2017-Oct-04 03:00N 32°05' W 011°34'511.0
2017-Oct-04 02:30N 32°09' W 011°30'611.1
2017-Oct-04 02:00N 32°13' W 011°26'711.2
2017-Oct-04 01:22N 32°19' W 011°21'511.3
2017-Oct-04 00:54N 32°23' W 011°17'711.3
2017-Oct-04 00:15N 32°29' W 011°11'411.2
2017-Oct-03 23:55N 32°32' W 011°09'3011.5
2017-Oct-03 21:16N 32°55' W 010°45'311.4
2017-Oct-03 21:00N 32°57' W 010°43'611.4
2017-Oct-03 20:30N 33°01' W 010°38'3011.2
2017-Oct-03 17:49N 33°23' W 010°14'311.1
2017-Oct-03 17:30N 33°26' W 010°11'611.1
2017-Oct-03 17:00N 33°30' W 010°06'2511.5
2017-Oct-03 14:49N 33°48' W 009°46'2711.4
2017-Oct-03 12:29N 34°08' W 009°24'911.4
2017-Oct-03 11:40N 34°15' W 009°16'211.3
2017-Oct-03 11:30N 34°16' W 009°15'611.2
2017-Oct-03 11:00N 34°20' W 009°10'611.5
2017-Oct-03 10:30N 34°24' W 009°05'611.4
2017-Oct-03 10:00N 34°28' W 009°01'  

Dump ship's entire track history